sensor_id;sensor_type;location;lat;lon;timestamp;pressure;altitude;pressure_sealevel;temperature;humidity
77381;BME280;66439;50.106;10.996;2023-01-01T00:01:24;98810.85;;;12.43;66.35
77381;BME280;66439;50.106;10.996;2023-01-01T00:04:35;98816.98;;;12.41;66.46
77381;BME280;66439;50.106;10.996;2023-01-01T00:07:37;98818.30;;;12.36;66.37
77381;BME280;66439;50.106;10.996;2023-01-01T00:10:40;98822.21;;;12.29;66.39
77381;BME280;66439;50.106;10.996;2023-01-01T00:13:43;98821.35;;;12.20;66.63
77381;BME280;66439;50.106;10.996;2023-01-01T00:16:46;98822.70;;;12.15;66.97
77381;BME280;66439;50.106;10.996;2023-01-01T00:20:01;98822.59;;;12.11;66.85
77381;BME280;66439;50.106;10.996;2023-01-01T00:23:05;98821.86;;;12.04;67.08
77381;BME280;66439;50.106;10.996;2023-01-01T00:26:16;98821.33;;;12.00;67.10
77381;BME280;66439;50.106;10.996;2023-01-01T00:29:20;98827.23;;;11.97;67.01
77381;BME280;66439;50.106;10.996;2023-01-01T00:32:23;98827.41;;;11.95;67.09
77381;BME280;66439;50.106;10.996;2023-01-01T00:35:26;98828.61;;;11.93;67.38
77381;BME280;66439;50.106;10.996;2023-01-01T00:38:29;98831.80;;;11.92;67.45
77381;BME280;66439;50.106;10.996;2023-01-01T00:41:31;98821.84;;;11.91;67.51
77381;BME280;66439;50.106;10.996;2023-01-01T00:44:34;98814.97;;;11.92;67.54
77381;BME280;66439;50.106;10.996;2023-01-01T00:47:37;98815.20;;;11.94;67.47
77381;BME280;66439;50.106;10.996;2023-01-01T00:50:39;98823.66;;;11.92;67.47
77381;BME280;66439;50.106;10.996;2023-01-01T00:53:42;98824.61;;;11.89;67.32
77381;BME280;66439;50.106;10.996;2023-01-01T00:56:45;98823.85;;;11.87;67.56
77381;BME280;66439;50.106;10.996;2023-01-01T00:59:51;98823.46;;;11.86;67.56
77381;BME280;66439;50.106;10.996;2023-01-01T01:02:54;98819.55;;;11.88;67.52
77381;BME280;66439;50.106;10.996;2023-01-01T01:06:06;98815.23;;;11.90;67.56
77381;BME280;66439;50.106;10.996;2023-01-01T01:09:12;98819.10;;;11.92;67.43
77381;BME280;66439;50.106;10.996;2023-01-01T01:12:14;98824.78;;;11.93;67.41
77381;BME280;66439;50.106;10.996;2023-01-01T01:15:20;98829.00;;;11.94;67.31
77381;BME280;66439;50.106;10.996;2023-01-01T01:18:24;98831.89;;;11.95;67.30
77381;BME280;66439;50.106;10.996;2023-01-01T01:21:31;98831.75;;;11.93;67.30
77381;BME280;66439;50.106;10.996;2023-01-01T01:24:34;98833.17;;;11.88;67.21
77381;BME280;66439;50.106;10.996;2023-01-01T01:27:37;98833.57;;;11.84;67.38
77381;BME280;66439;50.106;10.996;2023-01-01T01:30:40;98832.03;;;11.85;67.35
77381;BME280;66439;50.106;10.996;2023-01-01T01:33:47;98829.65;;;11.93;67.35
77381;BME280;66439;50.106;10.996;2023-01-01T01:36:52;98832.69;;;12.02;67.30
77381;BME280;66439;50.106;10.996;2023-01-01T01:39:55;98830.25;;;12.08;67.08
77381;BME280;66439;50.106;10.996;2023-01-01T01:42:58;98834.61;;;12.09;66.99
77381;BME280;66439;50.106;10.996;2023-01-01T01:46:04;98829.90;;;12.05;66.81
77381;BME280;66439;50.106;10.996;2023-01-01T01:49:26;98834.12;;;11.97;66.66
77381;BME280;66439;50.106;10.996;2023-01-01T01:52:32;98840.13;;;11.88;66.92
77381;BME280;66439;50.106;10.996;2023-01-01T01:55:38;98839.64;;;11.83;66.97
77381;BME280;66439;50.106;10.996;2023-01-01T01:58:42;98830.68;;;11.79;66.97
77381;BME280;66439;50.106;10.996;2023-01-01T02:01:45;98831.61;;;11.74;66.95
77381;BME280;66439;50.106;10.996;2023-01-01T02:04:48;98829.78;;;11.75;67.06
77381;BME280;66439;50.106;10.996;2023-01-01T02:07:52;98831.30;;;11.75;67.17
77381;BME280;66439;50.106;10.996;2023-01-01T02:10:55;98833.17;;;11.74;67.11
77381;BME280;66439;50.106;10.996;2023-01-01T02:13:59;98830.02;;;11.73;67.13
77381;BME280;66439;50.106;10.996;2023-01-01T02:17:58;98828.35;;;11.68;67.20
77381;BME280;66439;50.106;10.996;2023-01-01T02:30:10;98821.71;;;11.55;67.10
77381;BME280;66439;50.106;10.996;2023-01-01T02:33:17;98817.42;;;11.51;67.41
77381;BME280;66439;50.106;10.996;2023-01-01T02:36:23;98819.31;;;11.48;67.29
77381;BME280;66439;50.106;10.996;2023-01-01T02:39:28;98824.48;;;11.45;67.35
77381;BME280;66439;50.106;10.996;2023-01-01T02:42:33;98824.36;;;11.44;67.30
77381;BME280;66439;50.106;10.996;2023-01-01T02:45:36;98819.77;;;11.45;67.39
77381;BME280;66439;50.106;10.996;2023-01-01T02:48:47;98817.98;;;11.49;67.40
77381;BME280;66439;50.106;10.996;2023-01-01T02:52:12;98813.23;;;11.50;67.24
77381;BME280;66439;50.106;10.996;2023-01-01T02:55:28;98816.81;;;11.51;67.25
77381;BME280;66439;50.106;10.996;2023-01-01T02:58:46;98819.33;;;11.52;67.23
77381;BME280;66439;50.106;10.996;2023-01-01T03:05:52;98827.48;;;11.50;67.03
77381;BME280;66439;50.106;10.996;2023-01-01T03:12:30;98832.96;;;11.39;67.13
77381;BME280;66439;50.106;10.996;2023-01-01T03:15:47;98833.71;;;11.35;67.03
77381;BME280;66439;50.106;10.996;2023-01-01T03:18:58;98835.20;;;11.30;67.12
77381;BME280;66439;50.106;10.996;2023-01-01T03:22:16;98838.04;;;11.24;67.06
77381;BME280;66439;50.106;10.996;2023-01-01T03:25:30;98840.06;;;11.23;67.08
77381;BME280;66439;50.106;10.996;2023-01-01T03:28:57;98835.91;;;11.21;67.34
77381;BME280;66439;50.106;10.996;2023-01-01T03:32:03;98830.79;;;11.20;67.36
77381;BME280;66439;50.106;10.996;2023-01-01T03:35:08;98820.30;;;11.23;67.52
77381;BME280;66439;50.106;10.996;2023-01-01T03:38:18;98820.31;;;11.25;67.47
77381;BME280;66439;50.106;10.996;2023-01-01T03:41:34;98816.08;;;11.24;67.42
77381;BME280;66439;50.106;10.996;2023-01-01T03:44:57;98821.69;;;11.23;67.33
77381;BME280;66439;50.106;10.996;2023-01-01T03:48:08;98819.16;;;11.20;67.30
77381;BME280;66439;50.106;10.996;2023-01-01T03:51:22;98822.81;;;11.15;67.21
77381;BME280;66439;50.106;10.996;2023-01-01T04:01:24;98831.83;;;11.15;67.49
77381;BME280;66439;50.106;10.996;2023-01-01T04:04:29;98835.38;;;11.18;67.49
77381;BME280;66439;50.106;10.996;2023-01-01T04:07:33;98849.09;;;11.20;67.50
77381;BME280;66439;50.106;10.996;2023-01-01T04:10:40;98851.42;;;11.15;67.29
77381;BME280;66439;50.106;10.996;2023-01-01T04:13:47;98854.36;;;11.09;67.30
77381;BME280;66439;50.106;10.996;2023-01-01T04:16:49;98856.35;;;11.03;67.37
77381;BME280;66439;50.106;10.996;2023-01-01T04:19:52;98858.86;;;10.98;67.42
77381;BME280;66439;50.106;10.996;2023-01-01T04:22:57;98858.77;;;10.92;67.61
77381;BME280;66439;50.106;10.996;2023-01-01T04:26:00;98864.01;;;10.89;67.72
77381;BME280;66439;50.106;10.996;2023-01-01T04:29:03;98870.93;;;10.90;67.80
77381;BME280;66439;50.106;10.996;2023-01-01T04:32:06;98872.79;;;10.91;67.77
77381;BME280;66439;50.106;10.996;2023-01-01T04:35:13;98874.16;;;10.90;67.77
77381;BME280;66439;50.106;10.996;2023-01-01T04:38:16;98880.59;;;10.87;67.92
77381;BME280;66439;50.106;10.996;2023-01-01T04:41:18;98881.70;;;10.80;67.90
77381;BME280;66439;50.106;10.996;2023-01-01T04:44:21;98882.46;;;10.72;68.02
77381;BME280;66439;50.106;10.996;2023-01-01T04:47:24;98885.34;;;10.69;68.05
77381;BME280;66439;50.106;10.996;2023-01-01T04:50:30;98895.93;;;10.64;68.04
77381;BME280;66439;50.106;10.996;2023-01-01T04:53:34;98889.36;;;10.59;68.19
77381;BME280;66439;50.106;10.996;2023-01-01T05:00:29;98880.66;;;10.63;68.26
77381;BME280;66439;50.106;10.996;2023-01-01T05:03:32;98884.91;;;10.59;68.31
77381;BME280;66439;50.106;10.996;2023-01-01T05:06:36;98879.27;;;10.57;68.44
77381;BME280;66439;50.106;10.996;2023-01-01T05:09:39;98886.97;;;10.55;68.52
77381;BME280;66439;50.106;10.996;2023-01-01T05:12:41;98889.53;;;10.54;68.62
77381;BME280;66439;50.106;10.996;2023-01-01T05:15:44;98886.98;;;10.56;68.75
77381;BME280;66439;50.106;10.996;2023-01-01T05:18:48;98892.16;;;10.63;68.87
77381;BME280;66439;50.106;10.996;2023-01-01T05:21:52;98894.42;;;10.73;68.83
77381;BME280;66439;50.106;10.996;2023-01-01T05:24:55;98897.83;;;10.88;68.63
77381;BME280;66439;50.106;10.996;2023-01-01T05:27:58;98900.15;;;11.01;68.52
77381;BME280;66439;50.106;10.996;2023-01-01T05:31:07;98899.20;;;11.13;68.48
77381;BME280;66439;50.106;10.996;2023-01-01T05:34:11;98901.38;;;11.25;68.18
77381;BME280;66439;50.106;10.996;2023-01-01T05:37:13;98899.69;;;11.33;67.99
77381;BME280;66439;50.106;10.996;2023-01-01T05:40:16;98901.05;;;11.40;67.80
77381;BME280;66439;50.106;10.996;2023-01-01T05:43:19;98903.15;;;11.46;67.56
77381;BME280;66439;50.106;10.996;2023-01-01T05:46:23;98909.77;;;11.48;67.33
77381;BME280;66439;50.106;10.996;2023-01-01T05:49:26;98917.16;;;11.50;67.20
77381;BME280;66439;50.106;10.996;2023-01-01T05:52:29;98919.83;;;11.49;67.00
77381;BME280;66439;50.106;10.996;2023-01-01T05:55:32;98919.91;;;11.50;66.95
77381;BME280;66439;50.106;10.996;2023-01-01T05:58:35;98925.55;;;11.49;66.88
77381;BME280;66439;50.106;10.996;2023-01-01T06:01:38;98926.27;;;11.50;67.15
77381;BME280;66439;50.106;10.996;2023-01-01T06:04:47;98927.23;;;11.56;67.13
77381;BME280;66439;50.106;10.996;2023-01-01T06:07:50;98924.75;;;11.62;67.00
77381;BME280;66439;50.106;10.996;2023-01-01T06:10:57;98923.70;;;11.67;66.80
77381;BME280;66439;50.106;10.996;2023-01-01T06:14:01;98918.64;;;11.71;66.66
77381;BME280;66439;50.106;10.996;2023-01-01T06:17:04;98917.89;;;11.74;66.69
77381;BME280;66439;50.106;10.996;2023-01-01T06:20:07;98920.92;;;11.77;66.56
77381;BME280;66439;50.106;10.996;2023-01-01T06:23:10;98922.73;;;11.79;66.40
77381;BME280;66439;50.106;10.996;2023-01-01T06:26:16;98922.50;;;11.81;66.24
77381;BME280;66439;50.106;10.996;2023-01-01T06:29:19;98929.17;;;11.88;66.25
77381;BME280;66439;50.106;10.996;2023-01-01T06:32:22;98929.01;;;11.92;66.10
77381;BME280;66439;50.106;10.996;2023-01-01T06:35:26;98924.23;;;11.97;66.14
77381;BME280;66439;50.106;10.996;2023-01-01T06:38:33;98927.35;;;12.00;65.94
77381;BME280;66439;50.106;10.996;2023-01-01T06:41:36;98937.80;;;11.99;65.61
77381;BME280;66439;50.106;10.996;2023-01-01T06:44:39;98935.88;;;11.91;65.57
77381;BME280;66439;50.106;10.996;2023-01-01T06:47:43;98937.55;;;11.86;65.73
77381;BME280;66439;50.106;10.996;2023-01-01T06:50:46;98933.98;;;11.80;65.73
77381;BME280;66439;50.106;10.996;2023-01-01T06:53:50;98931.45;;;11.78;65.88
77381;BME280;66439;50.106;10.996;2023-01-01T06:56:53;98933.78;;;11.77;65.85
77381;BME280;66439;50.106;10.996;2023-01-01T06:59:56;98941.36;;;11.77;65.92
77381;BME280;66439;50.106;10.996;2023-01-01T07:02:59;98942.45;;;11.78;65.98
77381;BME280;66439;50.106;10.996;2023-01-01T07:06:03;98953.81;;;11.82;65.81
77381;BME280;66439;50.106;10.996;2023-01-01T07:09:07;98960.96;;;11.85;65.80
77381;BME280;66439;50.106;10.996;2023-01-01T07:12:10;98970.41;;;11.86;65.90
77381;BME280;66439;50.106;10.996;2023-01-01T07:15:13;98972.67;;;11.87;65.65
77381;BME280;66439;50.106;10.996;2023-01-01T07:18:16;98978.25;;;11.87;65.63
77381;BME280;66439;50.106;10.996;2023-01-01T07:21:43;98979.57;;;11.84;65.62
77381;BME280;66439;50.106;10.996;2023-01-01T07:24:46;98985.33;;;11.77;65.57
77381;BME280;66439;50.106;10.996;2023-01-01T07:27:49;98991.96;;;11.71;65.47
77381;BME280;66439;50.106;10.996;2023-01-01T07:30:52;98996.58;;;11.64;65.64
77381;BME280;66439;50.106;10.996;2023-01-01T07:33:56;99000.25;;;11.58;65.56
77381;BME280;66439;50.106;10.996;2023-01-01T07:36:59;98992.86;;;11.51;65.71
77381;BME280;66439;50.106;10.996;2023-01-01T07:40:01;98999.02;;;11.49;65.79
77381;BME280;66439;50.106;10.996;2023-01-01T07:43:04;99005.79;;;11.53;65.82
77381;BME280;66439;50.106;10.996;2023-01-01T07:46:11;99009.78;;;11.59;65.87
77381;BME280;66439;50.106;10.996;2023-01-01T07:49:14;99015.64;;;11.65;65.77
77381;BME280;66439;50.106;10.996;2023-01-01T07:52:17;99023.98;;;11.70;65.60
77381;BME280;66439;50.106;10.996;2023-01-01T07:55:21;99021.02;;;11.71;65.40
77381;BME280;66439;50.106;10.996;2023-01-01T07:58:23;99030.36;;;11.72;65.29
77381;BME280;66439;50.106;10.996;2023-01-01T08:01:26;99034.23;;;11.70;65.28
77381;BME280;66439;50.106;10.996;2023-01-01T08:04:31;99045.42;;;11.68;65.19
77381;BME280;66439;50.106;10.996;2023-01-01T08:07:35;99048.13;;;11.65;65.18
77381;BME280;66439;50.106;10.996;2023-01-01T08:10:38;99051.96;;;11.60;65.16
77381;BME280;66439;50.106;10.996;2023-01-01T08:13:42;99053.41;;;11.52;65.40
77381;BME280;66439;50.106;10.996;2023-01-01T08:16:44;99063.92;;;11.46;65.51
77381;BME280;66439;50.106;10.996;2023-01-01T08:19:47;99066.40;;;11.43;65.59
77381;BME280;66439;50.106;10.996;2023-01-01T08:22:51;99062.94;;;11.43;65.57
77381;BME280;66439;50.106;10.996;2023-01-01T08:25:57;99070.62;;;11.44;65.68
77381;BME280;66439;50.106;10.996;2023-01-01T08:29:03;99074.90;;;11.41;65.71
77381;BME280;66439;50.106;10.996;2023-01-01T08:32:06;99078.43;;;11.40;65.88
77381;BME280;66439;50.106;10.996;2023-01-01T08:35:09;99081.83;;;11.41;65.96
77381;BME280;66439;50.106;10.996;2023-01-01T08:38:12;99084.17;;;11.43;65.84
77381;BME280;66439;50.106;10.996;2023-01-01T08:41:14;99081.17;;;11.39;65.86
77381;BME280;66439;50.106;10.996;2023-01-01T08:44:18;99076.02;;;11.38;65.92
77381;BME280;66439;50.106;10.996;2023-01-01T08:47:24;99076.31;;;11.40;66.01
77381;BME280;66439;50.106;10.996;2023-01-01T08:50:27;99071.88;;;11.44;66.00
77381;BME280;66439;50.106;10.996;2023-01-01T08:53:30;99075.85;;;11.50;65.86
77381;BME280;66439;50.106;10.996;2023-01-01T08:56:33;99082.11;;;11.57;65.68
77381;BME280;66439;50.106;10.996;2023-01-01T08:59:36;99088.30;;;11.66;65.56
77381;BME280;66439;50.106;10.996;2023-01-01T09:02:39;99093.02;;;11.76;65.56
77381;BME280;66439;50.106;10.996;2023-01-01T09:05:42;99094.46;;;11.84;65.36
77381;BME280;66439;50.106;10.996;2023-01-01T09:08:47;99100.48;;;11.87;65.37
77381;BME280;66439;50.106;10.996;2023-01-01T09:11:51;99099.59;;;11.85;65.12
77381;BME280;66439;50.106;10.996;2023-01-01T09:14:55;99099.14;;;11.83;65.16
77381;BME280;66439;50.106;10.996;2023-01-01T09:17:57;99099.60;;;11.84;65.19
77381;BME280;66439;50.106;10.996;2023-01-01T09:21:00;99101.66;;;11.87;65.19
77381;BME280;66439;50.106;10.996;2023-01-01T09:24:03;99108.66;;;11.91;64.99
77381;BME280;66439;50.106;10.996;2023-01-01T09:27:06;99111.70;;;11.94;65.14
77381;BME280;66439;50.106;10.996;2023-01-01T09:30:09;99119.83;;;12.01;65.07
77381;BME280;66439;50.106;10.996;2023-01-01T09:33:12;99117.50;;;12.09;64.97
77381;BME280;66439;50.106;10.996;2023-01-01T09:36:26;99106.66;;;12.20;64.69
77381;BME280;66439;50.106;10.996;2023-01-01T09:39:29;99100.52;;;12.30;64.64
77381;BME280;66439;50.106;10.996;2023-01-01T09:42:42;99104.46;;;12.37;64.52
77381;BME280;66439;50.106;10.996;2023-01-01T09:46:05;99109.11;;;12.42;64.26
77381;BME280;66439;50.106;10.996;2023-01-01T09:49:14;99105.38;;;12.47;64.04
77381;BME280;66439;50.106;10.996;2023-01-01T09:52:19;99108.89;;;12.49;63.94
77381;BME280;66439;50.106;10.996;2023-01-01T09:55:28;99110.38;;;12.50;63.84
77381;BME280;66439;50.106;10.996;2023-01-01T09:58:36;99122.41;;;12.50;63.87
77381;BME280;66439;50.106;10.996;2023-01-01T10:05:30;99109.51;;;12.49;64.15
77381;BME280;66439;50.106;10.996;2023-01-01T10:09:00;99110.48;;;12.50;64.15
77381;BME280;66439;50.106;10.996;2023-01-01T10:12:14;99102.16;;;12.51;64.12
77381;BME280;66439;50.106;10.996;2023-01-01T10:16:29;99097.19;;;12.54;64.10
77381;BME280;66439;50.106;10.996;2023-01-01T10:22:43;99097.45;;;12.70;63.91
77381;BME280;66439;50.106;10.996;2023-01-01T10:25:48;99090.59;;;12.72;63.91
77381;BME280;66439;50.106;10.996;2023-01-01T10:29:02;99087.41;;;12.75;63.97
77381;BME280;66439;50.106;10.996;2023-01-01T10:32:24;99088.80;;;12.80;63.91
77381;BME280;66439;50.106;10.996;2023-01-01T10:35:39;99088.03;;;12.84;63.80
77381;BME280;66439;50.106;10.996;2023-01-01T10:38:43;99089.17;;;12.88;63.72
77381;BME280;66439;50.106;10.996;2023-01-01T10:41:46;99089.48;;;12.93;63.59
77381;BME280;66439;50.106;10.996;2023-01-01T10:44:51;99089.35;;;12.97;63.38
77381;BME280;66439;50.106;10.996;2023-01-01T10:48:16;99095.73;;;13.01;63.31
77381;BME280;66439;50.106;10.996;2023-01-01T10:51:20;99098.81;;;13.06;63.17
77381;BME280;66439;50.106;10.996;2023-01-01T10:54:38;99100.05;;;13.11;63.17
77381;BME280;66439;50.106;10.996;2023-01-01T10:57:41;99107.73;;;13.18;63.10
77381;BME280;66439;50.106;10.996;2023-01-01T11:00:56;99111.24;;;13.27;62.96
77381;BME280;66439;50.106;10.996;2023-01-01T11:07:29;99107.04;;;13.46;62.78
77381;BME280;66439;50.106;10.996;2023-01-01T11:10:33;99097.44;;;13.53;62.56
77381;BME280;66439;50.106;10.996;2023-01-01T11:13:38;99095.44;;;13.59;62.35
77381;BME280;66439;50.106;10.996;2023-01-01T11:16:44;99091.58;;;13.65;62.26
77381;BME280;66439;50.106;10.996;2023-01-01T11:19:48;99091.45;;;13.70;62.19
77381;BME280;66439;50.106;10.996;2023-01-01T11:22:56;99086.23;;;13.75;61.90
77381;BME280;66439;50.106;10.996;2023-01-01T11:26:07;99074.55;;;13.78;62.03
77381;BME280;66439;50.106;10.996;2023-01-01T11:29:26;99074.21;;;13.83;61.82
77381;BME280;66439;50.106;10.996;2023-01-01T11:32:34;99073.05;;;13.87;61.50
77381;BME280;66439;50.106;10.996;2023-01-01T11:35:48;99071.00;;;13.88;61.33
77381;BME280;66439;50.106;10.996;2023-01-01T11:42:31;99064.33;;;13.90;61.14
77381;BME280;66439;50.106;10.996;2023-01-01T11:45:39;99064.15;;;13.93;60.95
77381;BME280;66439;50.106;10.996;2023-01-01T11:48:43;99068.63;;;13.95;60.75
77381;BME280;66439;50.106;10.996;2023-01-01T11:51:46;99070.78;;;13.99;60.58
77381;BME280;66439;50.106;10.996;2023-01-01T11:54:49;99073.07;;;14.03;60.30
77381;BME280;66439;50.106;10.996;2023-01-01T11:58:10;99081.55;;;14.07;60.28
77381;BME280;66439;50.106;10.996;2023-01-01T12:01:27;99074.47;;;14.10;60.21
77381;BME280;66439;50.106;10.996;2023-01-01T12:04:47;99068.20;;;14.14;60.22
77381;BME280;66439;50.106;10.996;2023-01-01T12:07:52;99070.37;;;14.21;60.06
77381;BME280;66439;50.106;10.996;2023-01-01T12:11:09;99063.29;;;14.27;59.93
77381;BME280;66439;50.106;10.996;2023-01-01T12:14:34;99061.10;;;14.34;59.85
77381;BME280;66439;50.106;10.996;2023-01-01T12:17:42;99058.41;;;14.41;59.77
77381;BME280;66439;50.106;10.996;2023-01-01T12:20:51;99051.74;;;14.47;59.79
77381;BME280;66439;50.106;10.996;2023-01-01T12:23:57;99047.52;;;14.51;59.49
77381;BME280;66439;50.106;10.996;2023-01-01T12:30:23;99040.94;;;14.55;59.24
77381;BME280;66439;50.106;10.996;2023-01-01T12:33:42;99039.00;;;14.57;59.26
77381;BME280;66439;50.106;10.996;2023-01-01T12:36:59;99036.72;;;14.59;59.22
77381;BME280;66439;50.106;10.996;2023-01-01T12:43:59;99041.28;;;14.61;58.96
77381;BME280;66439;50.106;10.996;2023-01-01T12:57:42;99029.98;;;14.63;59.30
77381;BME280;66439;50.106;10.996;2023-01-01T13:01:07;99024.23;;;14.62;59.46
77381;BME280;66439;50.106;10.996;2023-01-01T13:04:16;99016.80;;;14.61;59.23
77381;BME280;66439;50.106;10.996;2023-01-01T13:07:25;99012.02;;;14.61;59.35
77381;BME280;66439;50.106;10.996;2023-01-01T13:10:38;99009.17;;;14.59;59.33
77381;BME280;66439;50.106;10.996;2023-01-01T13:13:43;99014.24;;;14.60;59.50
77381;BME280;66439;50.106;10.996;2023-01-01T13:16:51;99013.46;;;14.61;59.58
77381;BME280;66439;50.106;10.996;2023-01-01T13:20:13;99018.64;;;14.60;59.48
77381;BME280;66439;50.106;10.996;2023-01-01T13:26:37;99024.16;;;14.61;59.50
77381;BME280;66439;50.106;10.996;2023-01-01T13:29:42;99022.05;;;14.60;59.71
77381;BME280;66439;50.106;10.996;2023-01-01T13:33:16;99022.27;;;14.59;59.74
77381;BME280;66439;50.106;10.996;2023-01-01T13:43:04;99023.80;;;14.52;59.82
77381;BME280;66439;50.106;10.996;2023-01-01T13:46:08;99020.35;;;14.50;59.89
77381;BME280;66439;50.106;10.996;2023-01-01T13:53:07;99031.77;;;14.47;60.03
77381;BME280;66439;50.106;10.996;2023-01-01T14:03:10;99045.91;;;14.40;59.83
77381;BME280;66439;50.106;10.996;2023-01-01T14:06:27;99043.63;;;14.37;59.94
77381;BME280;66439;50.106;10.996;2023-01-01T14:09:33;99041.44;;;14.34;60.01
77381;BME280;66439;50.106;10.996;2023-01-01T14:12:37;99044.64;;;14.32;59.93
77381;BME280;66439;50.106;10.996;2023-01-01T14:15:50;99045.66;;;14.31;60.07
77381;BME280;66439;50.106;10.996;2023-01-01T14:18:58;99042.52;;;14.29;60.20
77381;BME280;66439;50.106;10.996;2023-01-01T14:22:06;99041.02;;;14.27;60.05
77381;BME280;66439;50.106;10.996;2023-01-01T14:25:14;99044.32;;;14.26;60.01
77381;BME280;66439;50.106;10.996;2023-01-01T14:28:23;99049.08;;;14.25;59.87
77381;BME280;66439;50.106;10.996;2023-01-01T14:31:30;99054.95;;;14.24;59.79
77381;BME280;66439;50.106;10.996;2023-01-01T14:34:34;99058.05;;;14.22;59.81
77381;BME280;66439;50.106;10.996;2023-01-01T14:37:37;99059.66;;;14.19;59.83
77381;BME280;66439;50.106;10.996;2023-01-01T14:40:41;99068.83;;;14.17;59.93
77381;BME280;66439;50.106;10.996;2023-01-01T14:43:46;99066.18;;;14.14;59.99
77381;BME280;66439;50.106;10.996;2023-01-01T14:46:51;99071.06;;;14.12;59.95
77381;BME280;66439;50.106;10.996;2023-01-01T14:50:01;99073.98;;;14.10;59.92
77381;BME280;66439;50.106;10.996;2023-01-01T14:53:12;99070.25;;;14.07;59.92
77381;BME280;66439;50.106;10.996;2023-01-01T14:56:29;99075.78;;;14.03;60.01
77381;BME280;66439;50.106;10.996;2023-01-01T14:59:32;99073.25;;;14.01;60.17
77381;BME280;66439;50.106;10.996;2023-01-01T15:02:37;99079.95;;;13.99;60.09
77381;BME280;66439;50.106;10.996;2023-01-01T15:05:42;99080.79;;;13.96;60.09
77381;BME280;66439;50.106;10.996;2023-01-01T15:08:48;99081.73;;;13.95;60.11
77381;BME280;66439;50.106;10.996;2023-01-01T15:11:53;99081.50;;;13.92;60.23
77381;BME280;66439;50.106;10.996;2023-01-01T15:14:57;99081.64;;;13.90;60.36
77381;BME280;66439;50.106;10.996;2023-01-01T15:18:00;99079.66;;;13.91;60.38
77381;BME280;66439;50.106;10.996;2023-01-01T15:21:06;99081.11;;;13.95;60.41
77381;BME280;66439;50.106;10.996;2023-01-01T15:24:17;99086.45;;;13.96;60.38
77381;BME280;66439;50.106;10.996;2023-01-01T15:27:34;99090.02;;;13.98;60.42
77381;BME280;66439;50.106;10.996;2023-01-01T15:30:39;99091.17;;;14.00;60.24
77381;BME280;66439;50.106;10.996;2023-01-01T15:33:46;99088.09;;;14.00;60.26
77381;BME280;66439;50.106;10.996;2023-01-01T15:36:51;99082.98;;;13.99;60.18
77381;BME280;66439;50.106;10.996;2023-01-01T15:39:56;99086.49;;;13.95;60.12
77381;BME280;66439;50.106;10.996;2023-01-01T15:46:20;99080.30;;;13.86;60.39
77381;BME280;66439;50.106;10.996;2023-01-01T15:49:29;99081.73;;;13.82;60.54
77381;BME280;66439;50.106;10.996;2023-01-01T15:52:34;99081.61;;;13.78;60.55
77381;BME280;66439;50.106;10.996;2023-01-01T15:55:42;99076.05;;;13.76;60.67
77381;BME280;66439;50.106;10.996;2023-01-01T15:58:55;99073.89;;;13.74;60.91
77381;BME280;66439;50.106;10.996;2023-01-01T16:02:14;99072.45;;;13.69;60.94
77381;BME280;66439;50.106;10.996;2023-01-01T16:05:23;99073.98;;;13.64;61.06
77381;BME280;66439;50.106;10.996;2023-01-01T16:08:26;99074.90;;;13.60;61.16
77381;BME280;66439;50.106;10.996;2023-01-01T16:11:29;99081.15;;;13.55;61.33
77381;BME280;66439;50.106;10.996;2023-01-01T16:14:32;99075.20;;;13.52;61.38
77381;BME280;66439;50.106;10.996;2023-01-01T16:17:34;99071.21;;;13.47;61.42
77381;BME280;66439;50.106;10.996;2023-01-01T16:20:37;99069.82;;;13.41;61.45
77381;BME280;66439;50.106;10.996;2023-01-01T16:23:40;99066.59;;;13.35;61.54
77381;BME280;66439;50.106;10.996;2023-01-01T16:26:43;99064.67;;;13.35;61.70
77381;BME280;66439;50.106;10.996;2023-01-01T16:29:46;99066.80;;;13.34;61.78
77381;BME280;66439;50.106;10.996;2023-01-01T16:32:56;99059.40;;;13.30;61.97
77381;BME280;66439;50.106;10.996;2023-01-01T16:35:58;99057.36;;;13.28;61.98
77381;BME280;66439;50.106;10.996;2023-01-01T16:39:02;99054.17;;;13.29;62.13
77381;BME280;66439;50.106;10.996;2023-01-01T16:42:04;99050.79;;;13.30;62.01
77381;BME280;66439;50.106;10.996;2023-01-01T16:45:16;99053.39;;;13.28;61.84
77381;BME280;66439;50.106;10.996;2023-01-01T16:48:21;99051.20;;;13.23;61.78
77381;BME280;66439;50.106;10.996;2023-01-01T16:51:27;99048.40;;;13.15;61.86
77381;BME280;66439;50.106;10.996;2023-01-01T16:54:31;99048.28;;;13.07;61.93
77381;BME280;66439;50.106;10.996;2023-01-01T16:57:34;99054.98;;;13.00;62.02
77381;BME280;66439;50.106;10.996;2023-01-01T17:00:37;99050.48;;;12.94;62.31
77381;BME280;66439;50.106;10.996;2023-01-01T17:03:39;99049.47;;;12.91;62.45
77381;BME280;66439;50.106;10.996;2023-01-01T17:06:42;99049.24;;;12.88;62.49
77381;BME280;66439;50.106;10.996;2023-01-01T17:09:45;99055.92;;;12.88;62.57
77381;BME280;66439;50.106;10.996;2023-01-01T17:12:48;99052.79;;;12.86;62.68
77381;BME280;66439;50.106;10.996;2023-01-01T17:15:55;99053.98;;;12.83;62.72
77381;BME280;66439;50.106;10.996;2023-01-01T17:18:58;99054.55;;;12.83;62.90
77381;BME280;66439;50.106;10.996;2023-01-01T17:22:18;99049.66;;;12.86;62.58
77381;BME280;66439;50.106;10.996;2023-01-01T17:25:23;99043.63;;;12.89;62.61
77381;BME280;66439;50.106;10.996;2023-01-01T17:28:26;99042.96;;;12.92;62.65
77381;BME280;66439;50.106;10.996;2023-01-01T17:31:29;99042.27;;;12.95;62.53
77381;BME280;66439;50.106;10.996;2023-01-01T17:34:32;99044.88;;;12.95;62.41
77381;BME280;66439;50.106;10.996;2023-01-01T17:37:38;99042.20;;;12.95;62.51
77381;BME280;66439;50.106;10.996;2023-01-01T17:40:44;99046.41;;;12.96;62.42